createdAt,value
2023-01-25T00:01:54.487Z,15.07
2023-01-25T00:04:24.099Z,15.53
2023-01-25T00:06:53.119Z,14.97
2023-01-25T00:09:22.542Z,14.47
2023-01-25T00:11:58.441Z,15.33
2023-01-25T00:14:26.887Z,13.53
2023-01-25T00:16:55.271Z,14.07
2023-01-25T00:19:24.069Z,14.23
2023-01-25T00:21:52.395Z,15.80
2023-01-25T00:24:23.021Z,14.13
2023-01-25T00:26:51.494Z,13.00
2023-01-25T00:29:21.304Z,12.57
2023-01-25T00:32:03.154Z,13.10
2023-01-25T00:34:45.912Z,14.10
2023-01-25T00:37:26.317Z,17.47
2023-01-25T00:39:54.686Z,12.80
2023-01-25T00:42:23.254Z,12.10
2023-01-25T00:44:52.986Z,14.17
2023-01-25T00:47:21.359Z,11.20
2023-01-25T00:49:50.349Z,14.73
2023-01-25T00:52:18.681Z,14.53
2023-01-25T00:54:47.902Z,14.57
2023-01-25T00:57:16.410Z,15.40
2023-01-25T00:59:45.949Z,14.53
2023-01-25T01:02:15.752Z,15.03
2023-01-25T01:04:44.208Z,14.30
2023-01-25T01:07:14.164Z,11.97
2023-01-25T01:09:42.826Z,15.33
2023-01-25T01:12:11.475Z,12.87
2023-01-25T01:14:40.231Z,15.37
2023-01-25T01:17:08.567Z,15.23
2023-01-25T01:19:38.293Z,12.80
2023-01-25T01:22:06.807Z,14.53
2023-01-25T01:24:35.258Z,14.47
2023-01-25T01:27:03.648Z,14.17
2023-01-25T01:29:32.162Z,14.87
2023-01-25T01:32:00.642Z,14.23
2023-01-25T01:34:29.102Z,16.23
2023-01-25T01:36:58.857Z,12.73
2023-01-25T01:39:27.335Z,13.37
2023-01-25T01:41:55.726Z,13.30
2023-01-25T01:44:44.796Z,15.07
2023-01-25T01:47:18.333Z,13.60
2023-01-25T01:49:52.446Z,13.77
2023-01-25T01:52:29.300Z,19.00
2023-01-25T01:55:01.968Z,14.67
2023-01-25T01:57:35.581Z,16.77
2023-01-25T02:00:09.767Z,15.80
2023-01-25T02:02:41.486Z,13.23
2023-01-25T02:05:16.122Z,14.77
2023-01-25T02:07:48.320Z,16.10
2023-01-25T02:10:17.311Z,12.33
2023-01-25T02:12:46.596Z,17.87
2023-01-25T02:15:15.301Z,13.67
2023-01-25T02:17:43.995Z,12.97
2023-01-25T02:20:24.473Z,13.87
2023-01-25T02:22:58.044Z,17.50
2023-01-25T02:25:28.621Z,14.83
2023-01-25T02:28:01.862Z,12.20
2023-01-25T02:30:30.302Z,14.97
2023-01-25T02:32:58.655Z,16.00
2023-01-25T02:35:39.541Z,17.40
2023-01-25T02:38:08.804Z,13.60
2023-01-25T02:40:46.948Z,13.77
2023-01-25T02:43:16.467Z,15.77
2023-01-25T02:45:48.713Z,13.73
2023-01-25T02:48:17.124Z,15.07
2023-01-25T02:50:45.492Z,14.23
2023-01-25T02:53:13.963Z,14.73
2023-01-25T02:55:43.779Z,16.43
2023-01-25T02:58:12.210Z,14.13
2023-01-25T03:00:40.651Z,13.73
2023-01-25T03:03:09.014Z,15.40
2023-01-25T03:05:37.468Z,15.63
2023-01-25T03:08:06.135Z,12.53
2023-01-25T03:10:34.503Z,12.90
2023-01-25T03:13:04.453Z,15.07
2023-01-25T03:15:42.759Z,15.10
2023-01-25T03:18:11.115Z,12.43
2023-01-25T03:20:39.448Z,16.10
2023-01-25T03:23:07.755Z,14.37
2023-01-25T03:25:36.124Z,13.60
2023-01-25T03:28:05.807Z,13.77
2023-01-25T03:30:34.129Z,13.47
2023-01-25T03:33:02.518Z,15.97
2023-01-25T03:35:32.257Z,14.23
2023-01-25T03:38:00.588Z,14.17
2023-01-25T03:40:29.056Z,15.67
2023-01-25T03:42:57.343Z,13.07
2023-01-25T03:45:27.273Z,16.83
2023-01-25T03:47:55.566Z,14.67
2023-01-25T03:50:23.998Z,15.37
2023-01-25T03:53:27.284Z,17.17
2023-01-25T03:55:57.075Z,16.43
2023-01-25T03:58:25.956Z,17.10
2023-01-25T04:00:58.510Z,13.33
2023-01-25T04:03:30.184Z,15.17
2023-01-25T04:05:59.774Z,18.23
2023-01-25T04:08:28.346Z,16.73
2023-01-25T04:10:58.083Z,16.27
2023-01-25T04:13:26.579Z,16.00
2023-01-25T04:15:59.688Z,16.67
2023-01-25T04:18:28.052Z,17.47
2023-01-25T04:20:57.570Z,15.77
2023-01-25T04:23:27.222Z,13.83
2023-01-25T04:25:56.359Z,13.93
2023-01-25T04:28:25.570Z,16.93
2023-01-25T04:30:56.392Z,15.80
2023-01-25T04:33:25.425Z,14.60
2023-01-25T04:35:53.873Z,13.50
2023-01-25T04:38:23.279Z,14.87
2023-01-25T04:40:52.061Z,14.30
2023-01-25T04:43:21.780Z,16.93
2023-01-25T04:45:50.271Z,18.17
2023-01-25T04:48:19.990Z,15.77
2023-01-25T04:50:48.357Z,14.13
2023-01-25T04:53:16.790Z,17.37
2023-01-25T04:55:48.184Z,19.70
2023-01-25T04:58:16.917Z,15.27
2023-01-25T05:00:45.318Z,15.73
2023-01-25T05:03:13.843Z,14.83
2023-01-25T05:05:47.155Z,18.80
2023-01-25T05:08:15.498Z,16.90
2023-01-25T05:10:43.820Z,14.77
2023-01-25T05:13:12.151Z,14.47
2023-01-25T05:15:40.613Z,14.70
2023-01-25T05:18:08.970Z,15.03
2023-01-25T05:20:37.367Z,17.23
2023-01-25T05:23:07.129Z,18.57
2023-01-25T05:25:52.954Z,14.93
2023-01-25T05:28:21.433Z,14.63
2023-01-25T05:30:49.764Z,12.53
2023-01-25T05:33:18.119Z,18.10
2023-01-25T05:35:46.479Z,14.90
2023-01-25T05:38:16.176Z,13.70
2023-01-25T05:40:44.573Z,14.43
2023-01-25T05:43:13.048Z,15.83
2023-01-25T05:45:41.433Z,12.43
2023-01-25T05:48:09.890Z,14.20
2023-01-25T05:50:38.225Z,14.80
2023-01-25T05:53:06.576Z,15.60
2023-01-25T05:55:37.726Z,14.53
2023-01-25T05:58:06.289Z,15.10
2023-01-25T06:00:34.663Z,12.70
2023-01-25T06:03:03.441Z,16.13
2023-01-25T06:05:31.892Z,15.00
2023-01-25T06:08:00.385Z,18.17
2023-01-25T06:10:28.774Z,14.57
2023-01-25T06:13:01.701Z,17.93
2023-01-25T06:15:30.021Z,17.57
2023-01-25T06:17:58.341Z,17.13
2023-01-25T06:20:26.802Z,16.53
2023-01-25T06:22:55.600Z,17.43
2023-01-25T06:25:23.950Z,15.93
2023-01-25T06:27:52.355Z,14.00
2023-01-25T06:30:22.268Z,19.60
2023-01-25T06:32:50.868Z,17.63
2023-01-25T06:35:19.244Z,16.37
2023-01-25T06:37:48.072Z,17.13
2023-01-25T06:40:17.139Z,18.73
2023-01-25T06:42:45.509Z,18.10
2023-01-25T06:45:13.944Z,18.40
2023-01-25T06:47:43.685Z,16.53
2023-01-25T06:50:12.171Z,19.20
2023-01-25T06:52:53.266Z,16.13
2023-01-25T06:55:22.491Z,15.93
2023-01-25T06:57:50.830Z,17.77
2023-01-25T07:00:20.153Z,16.40
2023-01-25T07:02:49.938Z,14.53
2023-01-25T07:05:18.636Z,16.20
2023-01-25T07:07:53.800Z,15.83
2023-01-25T07:10:22.184Z,13.60
2023-01-25T07:12:50.530Z,16.50
2023-01-25T07:15:18.873Z,15.93
2023-01-25T07:17:47.290Z,17.00
2023-01-25T07:20:17.387Z,17.00
2023-01-25T07:22:45.971Z,15.53
2023-01-25T07:25:15.171Z,16.77
2023-01-25T07:27:43.529Z,19.07
2023-01-25T07:30:12.882Z,17.77
2023-01-25T07:32:41.255Z,19.63
2023-01-25T07:35:10.443Z,17.17
2023-01-25T07:37:40.984Z,15.43
2023-01-25T07:40:10.372Z,16.27
2023-01-25T07:42:38.759Z,18.70
2023-01-25T07:45:08.544Z,15.53
2023-01-25T07:47:37.949Z,19.20
2023-01-25T07:50:07.348Z,15.63
2023-01-25T07:52:35.762Z,13.77
2023-01-25T07:55:06.397Z,15.17
2023-01-25T07:57:36.646Z,16.57
2023-01-25T08:00:07.243Z,19.13
2023-01-25T08:02:35.810Z,16.57
2023-01-25T08:05:06.298Z,14.33
2023-01-25T08:07:34.782Z,16.73
2023-01-25T08:10:03.262Z,15.20
2023-01-25T08:12:38.011Z,18.93
2023-01-25T08:15:08.563Z,18.40
2023-01-25T08:17:37.034Z,17.90
2023-01-25T08:20:07.531Z,14.93
2023-01-25T08:22:36.290Z,15.30
2023-01-25T08:25:05.000Z,13.33
2023-01-25T08:27:33.599Z,17.97
2023-01-25T08:30:03.429Z,16.17
2023-01-25T08:32:31.752Z,18.60
2023-01-25T08:35:00.081Z,16.97
2023-01-25T08:37:29.802Z,15.47
2023-01-25T08:39:59.907Z,18.53
2023-01-25T08:42:28.333Z,14.50
2023-01-25T08:44:56.695Z,15.07
2023-01-25T08:47:26.843Z,15.33
2023-01-25T08:49:55.537Z,17.23
2023-01-25T08:52:23.982Z,16.90
2023-01-25T08:54:52.382Z,23.70
2023-01-25T08:57:20.773Z,17.47
2023-01-25T08:59:49.152Z,18.47
2023-01-25T09:02:19.296Z,19.20
2023-01-25T09:04:52.488Z,17.10
2023-01-25T09:07:20.781Z,22.53
2023-01-25T09:09:49.120Z,16.33
2023-01-25T09:12:17.501Z,21.73
2023-01-25T09:14:45.832Z,20.43
2023-01-25T09:17:14.193Z,16.60
2023-01-25T09:19:43.170Z,18.97
2023-01-25T09:22:12.896Z,15.77
2023-01-25T09:24:41.307Z,22.10
2023-01-25T09:27:09.684Z,20.23
2023-01-25T09:29:39.592Z,20.43
2023-01-25T09:32:10.507Z,14.10
2023-01-25T09:34:38.895Z,23.50
2023-01-25T09:37:07.260Z,23.13
2023-01-25T09:39:36.977Z,17.87
2023-01-25T09:42:46.616Z,21.60
2023-01-25T09:45:32.451Z,16.33
2023-01-25T09:48:10.540Z,15.77
2023-01-25T09:50:49.198Z,16.40
2023-01-25T09:53:24.375Z,15.67
2023-01-25T09:55:58.789Z,22.07
2023-01-25T09:58:34.916Z,14.60
2023-01-25T10:01:21.622Z,20.90
2023-01-25T10:03:58.507Z,17.20
2023-01-25T10:06:37.492Z,17.70
2023-01-25T10:09:18.544Z,15.97
2023-01-25T10:11:48.935Z,16.03
2023-01-25T10:14:19.330Z,18.97
2023-01-25T10:17:05.320Z,18.27
2023-01-25T10:19:46.954Z,16.60
2023-01-25T10:22:18.094Z,18.97
2023-01-25T10:25:05.353Z,22.70
2023-01-25T10:27:44.510Z,19.83
2023-01-25T10:30:27.404Z,18.57
2023-01-25T10:32:59.876Z,17.43
2023-01-25T10:35:35.876Z,19.70
2023-01-25T10:38:12.597Z,27.40
2023-01-25T10:40:45.592Z,30.33
2023-01-25T10:43:19.486Z,20.03
2023-01-25T10:45:48.245Z,19.53
2023-01-25T10:48:21.260Z,21.03
2023-01-25T10:50:53.816Z,17.93
2023-01-25T10:53:28.319Z,25.60
2023-01-25T10:56:19.247Z,18.20
2023-01-25T10:58:50.952Z,16.90
2023-01-25T11:01:27.933Z,15.70
2023-01-25T11:03:56.602Z,15.17
2023-01-25T11:06:34.163Z,15.57
2023-01-25T11:09:03.074Z,16.80
2023-01-25T11:11:37.114Z,15.00
2023-01-25T11:14:17.450Z,19.47
2023-01-25T11:16:48.788Z,18.50
2023-01-25T11:19:29.880Z,19.77
2023-01-25T11:21:59.949Z,18.90
2023-01-25T11:24:29.929Z,17.63
2023-01-25T11:27:17.790Z,19.23
2023-01-25T11:30:07.692Z,17.00
2023-01-25T11:32:36.657Z,16.27
2023-01-25T11:35:07.464Z,20.50
2023-01-25T11:37:48.817Z,19.10
2023-01-25T11:40:24.169Z,16.90
2023-01-25T11:43:03.678Z,17.33
2023-01-25T11:45:49.535Z,17.73
2023-01-25T11:48:43.490Z,19.63
2023-01-25T11:51:18.436Z,15.63
2023-01-25T11:54:02.641Z,17.03
2023-01-25T11:56:44.541Z,17.87
2023-01-25T11:59:31.304Z,19.33
2023-01-25T12:02:16.080Z,16.90
2023-01-25T12:05:12.689Z,16.00
2023-01-25T12:07:56.843Z,22.40
2023-01-25T12:10:35.115Z,30.17
2023-01-25T12:13:12.518Z,39.70
2023-01-25T12:16:03.298Z,36.73
2023-01-25T12:18:49.720Z,36.27
2023-01-25T12:21:33.570Z,20.60
2023-01-25T12:24:17.942Z,35.23
2023-01-25T12:26:57.364Z,20.50
2023-01-25T12:29:31.856Z,19.33
2023-01-25T12:32:07.010Z,20.23
2023-01-25T12:34:39.448Z,15.17
2023-01-25T12:37:15.821Z,14.60
2023-01-25T12:39:49.435Z,18.30
2023-01-25T12:42:21.943Z,17.37
2023-01-25T12:44:55.863Z,16.10
2023-01-25T12:47:33.266Z,22.67
2023-01-25T12:50:10.898Z,39.60
2023-01-25T12:52:46.890Z,25.27
2023-01-25T12:55:18.303Z,21.63
2023-01-25T12:57:54.881Z,18.97
2023-01-25T13:00:28.242Z,16.67
2023-01-25T13:03:10.569Z,18.83
2023-01-25T13:05:49.124Z,18.40
2023-01-25T13:08:32.077Z,18.00
2023-01-25T13:11:10.833Z,21.17
2023-01-25T13:13:39.231Z,21.07
2023-01-25T13:16:37.741Z,19.13
2023-01-25T13:19:06.369Z,22.83
2023-01-25T13:21:46.527Z,21.20
2023-01-25T13:24:24.102Z,26.63
2023-01-25T13:27:04.914Z,21.73
2023-01-25T13:29:57.815Z,20.00
2023-01-25T13:32:58.934Z,21.63
2023-01-25T13:35:44.447Z,21.83
2023-01-25T13:38:38.421Z,19.07
2023-01-25T13:41:17.216Z,22.90
2023-01-25T13:43:49.280Z,24.27
2023-01-25T13:46:23.239Z,20.03
2023-01-25T13:49:02.755Z,21.07
2023-01-25T13:51:37.535Z,21.07
2023-01-25T13:54:07.485Z,29.33
2023-01-25T13:56:37.464Z,23.10
2023-01-25T13:59:05.931Z,26.57
2023-01-25T14:01:36.780Z,22.47
2023-01-25T14:04:06.678Z,24.17
2023-01-25T14:06:39.303Z,23.10
2023-01-25T14:09:16.952Z,21.30
2023-01-25T14:11:47.677Z,25.03
2023-01-25T14:14:21.162Z,30.13
2023-01-25T14:19:38.397Z,22.50
2023-01-25T14:22:22.415Z,24.33
2023-01-25T14:25:13.281Z,20.67
2023-01-25T14:27:46.683Z,18.47
2023-01-25T14:30:21.541Z,23.27
2023-01-25T14:32:51.584Z,21.40
2023-01-25T14:35:54.540Z,23.03
2023-01-25T14:38:30.816Z,22.33
2023-01-25T14:41:07.639Z,27.77
2023-01-25T14:43:38.443Z,24.03
2023-01-25T14:46:37.095Z,17.93
2023-01-25T14:49:09.773Z,24.83
2023-01-25T14:51:44.411Z,22.60
2023-01-25T14:54:18.661Z,16.70
2023-01-25T14:56:50.554Z,14.03
2023-01-25T14:59:27.299Z,16.40
2023-01-25T15:01:58.850Z,19.37
2023-01-25T15:04:27.505Z,16.83
2023-01-25T15:06:59.148Z,17.60
2023-01-25T15:09:42.266Z,18.13
2023-01-25T15:12:29.365Z,15.47
2023-01-25T15:14:59.106Z,23.63
2023-01-25T15:17:43.044Z,27.00
2023-01-25T15:20:39.941Z,18.47
2023-01-25T15:23:23.650Z,19.67
2023-01-25T15:26:03.773Z,20.00
2023-01-25T15:28:34.450Z,17.73
2023-01-25T15:31:05.774Z,23.67
2023-01-25T15:33:35.764Z,23.57
2023-01-25T15:36:04.193Z,20.90
2023-01-25T15:38:32.552Z,22.20
2023-01-25T15:41:01.593Z,18.37
2023-01-25T15:43:33.904Z,19.87
2023-01-25T15:46:02.834Z,14.93
2023-01-25T15:48:34.491Z,21.00
2023-01-25T15:51:03.031Z,20.03
2023-01-25T15:53:31.768Z,19.93
2023-01-25T15:56:02.932Z,15.93
2023-01-25T15:58:34.584Z,16.97
2023-01-25T16:01:03.467Z,16.43
2023-01-25T16:03:32.465Z,20.40
2023-01-25T16:06:02.826Z,18.80
2023-01-25T16:08:31.938Z,16.43
2023-01-25T16:11:00.337Z,17.27
2023-01-25T16:13:28.692Z,14.20
2023-01-25T16:15:58.714Z,16.57
2023-01-25T16:18:27.092Z,23.30
2023-01-25T16:20:55.570Z,19.73
2023-01-25T16:23:23.967Z,17.03
2023-01-25T16:25:52.311Z,15.70
2023-01-25T16:28:20.611Z,15.53
2023-01-25T16:30:49.972Z,17.77
2023-01-25T16:33:24.107Z,17.93
2023-01-25T16:36:05.654Z,16.17
2023-01-25T16:38:35.397Z,13.47
2023-01-25T16:41:03.929Z,19.13
2023-01-25T16:43:42.428Z,16.60
2023-01-25T16:46:16.615Z,21.33
2023-01-25T16:48:48.350Z,15.47
2023-01-25T16:51:18.987Z,20.23
2023-01-25T16:53:49.840Z,17.97
2023-01-25T16:56:19.364Z,19.77
2023-01-25T16:58:49.094Z,20.53
2023-01-25T17:01:18.830Z,17.80
2023-01-25T17:03:48.800Z,16.60
2023-01-25T17:06:20.102Z,16.47
2023-01-25T17:08:48.944Z,16.30
2023-01-25T17:11:19.936Z,18.40
2023-01-25T17:13:52.072Z,14.27
2023-01-25T17:16:21.796Z,15.57
2023-01-25T17:18:54.764Z,17.50
2023-01-25T17:21:23.786Z,18.27
2023-01-25T17:23:52.675Z,18.20
2023-01-25T17:26:23.347Z,18.13
2023-01-25T17:28:52.369Z,15.87
2023-01-25T17:31:22.424Z,14.63
2023-01-25T17:33:52.249Z,21.93
2023-01-25T17:36:20.861Z,17.80
2023-01-25T17:38:49.881Z,20.40
2023-01-25T17:41:18.267Z,50.03
2023-01-25T17:43:57.596Z,74.03
2023-01-25T17:46:29.744Z,85.93
2023-01-25T17:49:01.062Z,68.17
2023-01-25T17:51:30.436Z,20.93
2023-01-25T17:53:59.079Z,15.80
2023-01-25T17:56:27.925Z,14.53
2023-01-25T17:58:56.721Z,17.33
2023-01-25T18:01:28.278Z,16.23
2023-01-25T18:04:00.752Z,18.40
2023-01-25T18:06:30.933Z,13.40
2023-01-25T18:09:01.268Z,17.67
2023-01-25T18:11:31.902Z,20.03
2023-01-25T18:14:02.147Z,20.37
2023-01-25T18:16:32.603Z,19.60
2023-01-25T18:19:03.033Z,19.00
2023-01-25T18:21:33.269Z,19.93
2023-01-25T18:24:04.750Z,15.23
2023-01-25T18:26:36.999Z,21.17
2023-01-25T18:29:32.114Z,13.30
2023-01-25T18:32:00.751Z,16.87
2023-01-25T18:34:30.491Z,15.63
2023-01-25T18:36:59.438Z,18.13
2023-01-25T18:39:28.163Z,27.77
2023-01-25T18:41:56.626Z,40.47
2023-01-25T18:44:25.059Z,41.87
2023-01-25T18:46:53.511Z,25.23
2023-01-25T18:49:21.839Z,18.20
2023-01-25T18:52:10.570Z,16.23
2023-01-25T18:54:39.566Z,15.53
2023-01-25T18:57:07.943Z,16.03
2023-01-25T18:59:36.296Z,18.47
2023-01-25T19:02:04.980Z,17.93
2023-01-25T19:04:33.688Z,17.97
2023-01-25T19:07:03.618Z,19.07
2023-01-25T19:09:32.279Z,17.67
2023-01-25T19:12:00.811Z,17.70
2023-01-25T19:14:29.139Z,16.77
2023-01-25T19:16:57.770Z,16.73
2023-01-25T19:19:31.796Z,17.37
2023-01-25T19:22:00.392Z,18.53
2023-01-25T19:24:30.869Z,16.00
2023-01-25T19:26:59.423Z,15.73
2023-01-25T19:29:27.841Z,15.20
2023-01-25T19:31:56.249Z,20.30
2023-01-25T19:34:24.815Z,17.90
2023-01-25T19:36:53.907Z,18.70
2023-01-25T19:39:22.435Z,20.17
2023-01-25T19:41:54.397Z,21.73
2023-01-25T19:44:23.903Z,14.27
2023-01-25T19:46:52.322Z,16.90
2023-01-25T19:49:22.361Z,17.13
2023-01-25T19:51:53.326Z,16.13
2023-01-25T19:54:23.088Z,16.63
2023-01-25T19:56:52.978Z,21.27
2023-01-25T19:59:24.841Z,19.27
2023-01-25T20:01:54.202Z,19.77
2023-01-25T20:04:24.420Z,19.50
2023-01-25T20:06:53.423Z,19.40
2023-01-25T20:09:24.942Z,16.10
2023-01-25T20:11:55.949Z,17.37
2023-01-25T20:14:24.521Z,17.73
2023-01-25T20:16:53.046Z,18.17
2023-01-25T20:19:21.472Z,18.80
2023-01-25T20:21:50.021Z,18.10
2023-01-25T20:24:18.536Z,17.33
2023-01-25T20:26:47.358Z,16.73
2023-01-25T20:29:17.121Z,20.33
2023-01-25T20:31:47.163Z,17.73
2023-01-25T20:34:18.101Z,17.53
2023-01-25T20:36:46.857Z,16.50
2023-01-25T20:39:16.676Z,19.80
2023-01-25T20:41:45.717Z,19.40
2023-01-25T20:44:17.093Z,22.60
2023-01-25T20:46:47.236Z,23.17
2023-01-25T20:49:17.194Z,16.10
2023-01-25T20:51:46.138Z,16.07
2023-01-25T20:54:15.055Z,17.83
2023-01-25T20:56:47.697Z,17.10
2023-01-25T20:59:17.817Z,16.70
2023-01-25T21:01:47.649Z,15.57
2023-01-25T21:04:16.273Z,16.37
2023-01-25T21:06:44.698Z,16.37
2023-01-25T21:09:13.602Z,21.13
2023-01-25T21:11:42.065Z,19.07
2023-01-25T21:14:10.459Z,14.47
2023-01-25T21:16:38.856Z,19.33
2023-01-25T21:19:09.447Z,20.60
2023-01-25T21:21:38.588Z,21.60
2023-01-25T21:24:07.785Z,18.43
2023-01-25T21:26:38.360Z,19.80
2023-01-25T21:29:08.002Z,17.70
2023-01-25T21:31:38.819Z,20.43
2023-01-25T21:34:09.213Z,18.00
2023-01-25T21:36:37.683Z,18.53
2023-01-25T21:39:06.151Z,18.67
2023-01-25T21:41:34.740Z,21.67
2023-01-25T21:44:21.616Z,21.43
2023-01-25T21:47:19.635Z,18.53
2023-01-25T21:49:57.348Z,17.87
2023-01-25T21:52:25.699Z,15.10
2023-01-25T21:54:54.084Z,18.57
2023-01-25T21:57:22.470Z,14.93
2023-01-25T21:59:53.162Z,16.23
2023-01-25T22:02:22.654Z,18.13
2023-01-25T22:04:52.517Z,18.07
2023-01-25T22:07:20.942Z,16.90
2023-01-25T22:09:50.302Z,17.83
2023-01-25T22:12:18.680Z,17.13
2023-01-25T22:14:47.058Z,16.47
2023-01-25T22:17:15.428Z,18.00
2023-01-25T22:19:43.866Z,18.97
2023-01-25T22:22:13.616Z,18.70
2023-01-25T22:24:41.939Z,16.20
2023-01-25T22:27:28.957Z,18.33
2023-01-25T22:29:57.337Z,15.90
2023-01-25T22:32:25.678Z,19.47
2023-01-25T22:34:55.027Z,21.13
2023-01-25T22:37:24.952Z,18.97
2023-01-25T22:39:54.460Z,18.03
2023-01-25T22:42:22.816Z,16.87
2023-01-25T22:44:51.170Z,16.00
2023-01-25T22:47:19.525Z,15.60
2023-01-25T22:49:47.865Z,19.73
2023-01-25T22:52:16.248Z,16.27
2023-01-25T22:54:46.019Z,16.47
2023-01-25T22:57:14.342Z,15.47
2023-01-25T22:59:42.684Z,19.10
2023-01-25T23:02:11.023Z,14.63
2023-01-25T23:04:39.417Z,18.87
2023-01-25T23:07:19.115Z,16.60
2023-01-25T23:09:52.432Z,14.87
2023-01-25T23:12:21.076Z,16.07
2023-01-25T23:14:52.861Z,15.83
2023-01-25T23:17:40.422Z,16.33
2023-01-25T23:20:11.094Z,14.13
2023-01-25T23:22:40.289Z,13.90
2023-01-25T23:25:11.564Z,15.50
2023-01-25T23:27:39.963Z,13.57
2023-01-25T23:30:11.430Z,16.33
2023-01-25T23:32:39.942Z,14.60
2023-01-25T23:35:08.931Z,15.97
2023-01-25T23:37:37.369Z,17.90
2023-01-25T23:40:09.175Z,15.87
2023-01-25T23:42:39.487Z,16.13
2023-01-25T23:45:10.284Z,13.50
2023-01-25T23:47:39.256Z,14.40
2023-01-25T23:50:09.199Z,14.27
2023-01-25T23:52:37.968Z,12.40
2023-01-25T23:55:07.442Z,15.20
2023-01-25T23:57:36.088Z,15.40
